Time;durP1;ratioP1;P1;durP2;ratioP2;P2;SDS_P1;SDS_P2;PMS_P1;PMS_P2;Temp;Humidity;BMP_temperature;BMP_pressure;BME280_temperature;BME280_humidity;BME280_pressure;Samples;Min_cycle;Max_cycle;Signal;HPM_P1;HPM_P2
2021/11/30 00:00:23;;;;;;;13.62;6.80;;;;;;;1.03;85.93;99510.28;1760701;81;21087;-77
2021/11/30 00:02:51;;;;;;;11.00;6.63;;;;;;;0.99;85.89;99518.91;1761438;81;21014;-78
2021/11/30 00:05:17;;;;;;;13.78;7.30;;;;;;;0.94;85.86;99519.80;1761004;81;20998;-79
2021/11/30 00:07:42;;;;;;;16.87;8.00;;;;;;;0.90;85.82;99518.86;1761661;81;20892;-78
2021/11/30 00:12:36;;;;;;;18.23;8.38;;;;;;;0.78;85.77;99527.28;1761472;81;21102;-77
2021/11/30 00:15:03;;;;;;;16.97;7.55;;;;;;;0.72;85.72;99526.97;1741392;81;21495;-77
2021/11/30 00:17:29;;;;;;;24.47;9.43;;;;;;;0.62;85.71;99523.46;1730957;82;21097;-78
2021/11/30 00:19:56;;;;;;;30.02;13.13;;;;;;;0.54;85.67;99533.75;1744457;81;20870;-78
2021/11/30 00:22:24;;;;;;;28.75;10.93;;;;;;;0.45;85.65;99533.58;1732300;82;21606;-78
2021/11/30 00:24:51;;;;;;;34.70;15.08;;;;;;;0.38;85.64;99532.42;1761920;81;21410;-78
2021/11/30 00:27:17;;;;;;;34.98;15.65;;;;;;;0.31;85.62;99539.61;1732518;82;21023;-77
2021/11/30 00:29:43;;;;;;;43.52;17.17;;;;;;;0.27;85.60;99549.52;1761712;81;21085;-77
2021/11/30 00:32:10;;;;;;;36.10;14.50;;;;;;;0.24;85.58;99552.39;1731435;82;21567;-78
2021/11/30 00:34:35;;;;;;;26.12;10.53;;;;;;;0.23;85.56;99545.95;1731992;82;20991;-78
2021/11/30 00:37:02;;;;;;;21.75;9.60;;;;;;;0.26;85.55;99551.77;1764776;81;21467;-78
2021/11/30 00:39:28;;;;;;;11.22;6.97;;;;;;;0.27;85.53;99546.89;1760389;81;21034;-78
2021/11/30 00:41:58;;;;;;;9.28;6.03;;;;;;;0.28;85.51;99543.29;1724188;83;20923;-78
2021/11/30 00:44:25;;;;;;;9.75;6.00;;;;;;;0.28;85.50;99545.91;1758033;81;21022;-78
2021/11/30 00:46:53;;;;;;;9.90;5.80;;;;;;;0.29;85.50;99549.37;1750579;79;20975;-78
2021/11/30 00:49:18;;;;;;;12.63;8.03;;;;;;;0.25;85.50;99549.27;1795749;79;21099;-78
2021/11/30 00:51:44;;;;;;;12.35;7.58;;;;;;;0.21;85.49;99552.61;1788935;79;20895;-78
2021/11/30 00:54:12;;;;;;;12.60;7.78;;;;;;;0.17;85.49;99552.53;1734082;81;21012;-78
2021/11/30 00:56:41;;;;;;;11.35;7.60;;;;;;;0.15;85.49;99551.81;1734132;82;21080;-78
2021/11/30 00:59:07;;;;;;;11.53;7.12;;;;;;;0.14;85.50;99564.55;1720633;83;21024;-78
2021/11/30 01:01:33;;;;;;;9.08;6.15;;;;;;;0.12;85.50;99567.80;1723158;83;21184;-78
2021/11/30 01:03:59;;;;;;;10.78;6.30;;;;;;;0.12;85.51;99565.64;1697942;84;21014;-78
2021/11/30 01:06:25;;;;;;;8.25;5.28;;;;;;;0.11;85.51;99563.50;1698138;83;21506;-77
2021/11/30 01:08:51;;;;;;;10.82;5.20;;;;;;;0.09;85.50;99565.42;1698921;83;20878;-77
2021/11/30 01:11:17;;;;;;;16.35;6.42;;;;;;;0.08;85.52;99579.95;1728489;83;20911;-77
2021/11/30 01:13:43;;;;;;;12.33;7.10;;;;;;;0.07;85.52;99579.11;1729106;83;21095;-77
2021/11/30 01:16:09;;;;;;;12.70;6.37;;;;;;;0.07;85.51;99575.18;1728832;83;20996;-77
2021/11/30 01:18:35;;;;;;;11.63;6.65;;;;;;;0.07;85.52;99566.52;1728548;83;20920;-77
2021/11/30 01:21:01;;;;;;;12.93;7.28;;;;;;;0.06;85.52;99571.39;1728628;83;20980;-77
2021/11/30 01:23:30;;;;;;;12.63;6.85;;;;;;;0.06;85.54;99561.75;1722662;83;21004;-77
2021/11/30 01:25:56;;;;;;;11.40;7.25;;;;;;;0.06;85.54;99565.67;1728853;83;21545;-77
2021/11/30 01:28:23;;;;;;;12.75;6.80;;;;;;;0.06;85.54;99561.75;1758976;81;21022;-77
2021/11/30 01:30:49;;;;;;;14.38;9.13;;;;;;;0.06;85.57;99556.50;1758814;81;21046;-77
2021/11/30 01:33:15;;;;;;;13.65;9.03;;;;;;;0.07;85.57;99550.28;1728116;83;21539;-77
2021/11/30 01:35:44;;;;;;;19.98;12.60;;;;;;;0.05;85.54;99557.45;1728653;83;20999;-77
2021/11/30 01:38:09;;;;;;;14.75;10.72;;;;;;;0.05;85.57;99548.75;1758214;81;21845;-77
2021/11/30 01:40:35;;;;;;;13.50;10.13;;;;;;;0.05;85.57;99550.06;1759051;81;20919;-77
2021/11/30 01:43:04;;;;;;;15.32;8.18;;;;;;;0.06;85.59;99551.73;1759018;81;20990;-77
2021/11/30 01:45:43;;;;;;;16.50;8.15;;;;;;;0.06;85.58;99553.05;1758850;81;20975;-77
2021/11/30 01:50:30;;;;;;;10.03;6.53;;;;;;;0.07;85.59;99556.03;1758831;81;21858;-77
2021/11/30 01:52:56;;;;;;;11.53;6.80;;;;;;;0.06;85.60;99553.88;1742582;81;21048;-77
2021/11/30 01:55:22;;;;;;;14.87;8.50;;;;;;;0.08;85.60;99558.51;1729004;83;20995;-77
2021/11/30 01:57:50;;;;;;;15.10;7.97;;;;;;;0.08;85.61;99561.60;1728604;82;21552;-77
2021/11/30 02:00:16;;;;;;;13.43;7.70;;;;;;;0.10;85.62;99568.41;1759063;81;20991;-77
2021/11/30 02:02:42;;;;;;;19.17;9.00;;;;;;;0.11;85.62;99563.50;1756231;80;21335;-77
2021/11/30 02:05:10;;;;;;;16.02;9.98;;;;;;;0.12;85.62;99561.24;1755352;81;21130;-77
2021/11/30 02:07:37;;;;;;;14.18;8.95;;;;;;;0.14;85.63;99559.31;1755836;81;21034;-77
2021/11/30 02:10:06;;;;;;;13.90;7.70;;;;;;;0.15;85.64;99555.74;1755833;81;21097;-77
2021/11/30 02:12:32;;;;;;;15.78;8.55;;;;;;;0.16;85.64;99563.13;1755894;81;21003;-78
2021/11/30 02:15:00;;;;;;;12.47;8.48;;;;;;;0.17;85.64;99555.16;1755512;81;21723;-78
2021/11/30 02:17:26;;;;;;;16.05;11.25;;;;;;;0.17;85.65;99555.16;1735181;81;21004;-78
2021/11/30 02:19:56;;;;;;;17.32;11.25;;;;;;;0.19;85.65;99546.68;1724830;83;20988;-78
2021/11/30 02:22:20;;;;;;;27.10;18.62;;;;;;;0.20;85.68;99543.11;1725648;82;21111;-78
2021/11/30 02:24:46;;;;;;;22.30;12.80;;;;;;;0.20;85.68;99533.93;1726109;83;21501;-78
2021/11/30 02:27:12;;;;;;;13.75;9.88;;;;;;;0.22;85.66;99529.86;1726055;83;21133;-78
2021/11/30 02:29:38;;;;;;;14.83;9.48;;;;;;;0.22;85.68;99524.61;1725953;82;20973;-78
2021/11/30 02:32:06;;;;;;;10.13;7.78;;;;;;;0.22;85.69;99525.45;1744437;81;20963;-78
2021/11/30 02:34:32;;;;;;;12.45;8.08;;;;;;;0.22;85.69;99514.13;1755786;81;21043;-78
2021/11/30 02:37:09;;;;;;;12.58;8.75;;;;;;;0.23;85.72;99526.28;1755230;81;21011;-78
2021/11/30 02:39:36;;;;;;;11.80;7.65;;;;;;;0.21;85.74;99538.20;1755798;81;21121;-78
2021/11/30 02:42:05;;;;;;;17.42;8.30;;;;;;;0.22;85.73;99532.48;1755786;81;21500;-78
2021/11/30 02:44:31;;;;;;;10.58;8.08;;;;;;;0.23;85.73;99528.43;1754176;81;21215;-78
2021/11/30 02:47:00;;;;;;;11.12;7.30;;;;;;;0.25;85.76;99535.68;1755698;81;21433;-78
2021/11/30 02:49:29;;;;;;;17.27;9.20;;;;;;;0.27;85.76;99521.15;1755700;81;21050;-78
2021/11/30 02:52:09;;;;;;;14.77;9.20;;;;;;;0.30;85.75;99524.83;1751627;81;21987;-78
2021/11/30 02:54:41;;;;;;;13.68;7.78;;;;;;;0.32;85.75;99520.27;1755847;81;21031;-78
2021/11/30 02:57:08;;;;;;;14.93;8.63;;;;;;;0.34;85.77;99525.77;1755525;81;21126;-78
2021/11/30 02:59:36;;;;;;;14.65;8.85;;;;;;;0.35;85.76;99533.95;1747912;81;21088;-77
2021/11/30 03:02:12;;;;;;;17.73;11.08;;;;;;;0.36;85.77;99525.62;1725772;82;21060;-77
2021/11/30 03:04:36;;;;;;;19.98;13.20;;;;;;;0.36;85.79;99521.21;1725563;82;21516;-77
2021/11/30 03:07:02;;;;;;;18.87;11.10;;;;;;;0.37;85.79;99520.27;1745252;81;20900;-77
2021/11/30 03:09:28;;;;;;;13.32;9.08;;;;;;;0.40;85.80;99521.31;1755760;81;21081;-77
2021/11/30 03:11:54;;;;;;;13.13;8.05;;;;;;;0.40;85.80;99502.95;1755916;81;20856;-77
2021/11/30 03:14:22;;;;;;;17.55;10.20;;;;;;;0.42;85.81;99508.09;1755917;81;21145;-77
2021/11/30 03:16:48;;;;;;;13.05;9.50;;;;;;;0.42;85.82;99503.65;1755929;81;21721;-78
2021/11/30 03:19:15;;;;;;;14.85;9.70;;;;;;;0.43;85.83;99496.62;1749808;81;21033;-77
2021/11/30 03:21:41;;;;;;;14.98;10.35;;;;;;;0.43;85.86;99497.45;1725806;82;21048;-78
2021/11/30 03:24:07;;;;;;;18.45;10.48;;;;;;;0.43;85.85;99500.08;1725648;82;21481;-78
2021/11/30 03:26:33;;;;;;;14.43;9.65;;;;;;;0.43;85.86;99490.90;1725843;83;20886;-78
2021/11/30 03:28:59;;;;;;;23.60;11.75;;;;;;;0.44;85.86;99485.17;1725548;83;21199;-77
2021/11/30 03:31:48;;;;;;;17.95;10.50;;;;;;;0.44;85.86;99480.77;1739577;81;21030;-77
2021/11/30 03:34:10;;;;;;;16.42;10.90;;;;;;;0.45;85.86;99473.73;1754401;81;20999;-77
2021/11/30 03:36:38;;;;;;;18.50;11.83;;;;;;;0.47;85.86;99479.67;1755666;81;21012;-77
2021/11/30 03:39:14;;;;;;;17.02;10.82;;;;;;;0.49;85.87;99478.58;1738468;81;21029;-77
2021/11/30 03:41:41;;;;;;;17.48;11.80;;;;;;;0.52;85.88;99468.80;1725877;81;21485;-78
2021/11/30 03:44:07;;;;;;;18.07;11.35;;;;;;;0.55;85.89;99459.36;1725622;82;21004;-77
2021/11/30 03:46:34;;;;;;;18.05;11.68;;;;;;;0.57;85.87;99461.36;1725516;83;21024;-77
2021/11/30 03:49:01;;;;;;;17.70;13.68;;;;;;;0.60;85.88;99461.13;1725369;83;21047;-77
2021/11/30 03:51:28;;;;;;;19.95;11.63;;;;;;;0.62;85.92;99453.95;1725791;83;21024;-77
2021/11/30 03:53:54;;;;;;;20.00;11.63;;;;;;;0.64;85.91;99453.32;1725698;82;21091;-77
2021/11/30 03:56:20;;;;;;;16.95;10.80;;;;;;;0.67;85.92;99457.02;1726663;81;20956;-77
2021/11/30 03:58:46;;;;;;;17.32;10.38;;;;;;;0.67;85.94;99453.09;1725763;83;21035;-77
2021/11/30 04:01:11;;;;;;;15.03;10.25;;;;;;;0.68;85.94;99452.10;1725929;83;20897;-77
2021/11/30 04:03:40;;;;;;;17.67;11.05;;;;;;;0.68;85.95;99442.45;1725551;82;21620;-77
2021/11/30 04:06:05;;;;;;;18.05;10.93;;;;;;;0.70;85.94;99443.64;1725824;82;21155;-77
2021/11/30 04:08:32;;;;;;;16.55;9.98;;;;;;;0.72;85.97;99443.02;1725779;83;20893;-77
2021/11/30 04:10:59;;;;;;;16.32;10.70;;;;;;;0.74;85.97;99433.23;1738017;81;21069;-77
2021/11/30 04:13:25;;;;;;;14.07;9.55;;;;;;;0.74;85.99;99431.92;1755685;81;20994;-77
2021/11/30 04:15:51;;;;;;;14.90;9.70;;;;;;;0.75;85.99;99419.13;1755782;81;21646;-77
2021/11/30 04:18:16;;;;;;;15.00;10.68;;;;;;;0.75;85.99;99415.20;1755812;80;21615;-77
2021/11/30 04:20:42;;;;;;;13.28;9.48;;;;;;;0.75;85.99;99409.95;1754646;81;21387;-77
2021/11/30 04:23:08;;;;;;;13.55;9.45;;;;;;;0.74;85.98;99416.19;1755358;81;20987;-76
2021/11/30 04:25:35;;;;;;;14.60;10.05;;;;;;;0.74;86.00;99410.94;1744553;81;20897;-76
2021/11/30 04:28:01;;;;;;;15.60;11.03;;;;;;;0.74;86.01;99405.69;1730667;81;21047;-76
2021/11/30 04:30:27;;;;;;;16.62;10.60;;;;;;;0.77;86.02;99414.60;1755923;81;21135;-77
2021/11/30 04:32:53;;;;;;;16.70;11.22;;;;;;;0.78;86.05;99405.75;1736703;81;21084;-77
2021/11/30 04:35:19;;;;;;;15.25;10.95;;;;;;;0.80;86.05;99398.59;1725866;82;21596;-77
2021/11/30 04:37:45;;;;;;;16.60;12.13;;;;;;;0.80;86.04;99397.28;1725636;83;20877;-77
2021/11/30 04:40:12;;;;;;;18.48;10.63;;;;;;;0.78;86.06;99405.75;1725892;82;21119;-77
2021/11/30 04:42:41;;;;;;;15.53;10.60;;;;;;;0.78;86.07;99401.81;1725919;82;22079;-77
2021/11/30 04:45:09;;;;;;;19.15;11.48;;;;;;;0.82;86.08;99400.11;1727523;81;21044;-77
2021/11/30 04:47:38;;;;;;;15.08;10.85;;;;;;;0.87;86.08;99391.84;1725603;82;21540;-77
2021/11/30 04:50:08;;;;;;;16.80;10.53;;;;;;;0.88;86.09;99381.70;1725639;82;21004;-76
2021/11/30 04:52:33;;;;;;;16.82;10.60;;;;;;;0.89;86.09;99383.34;1738855;81;21110;-76
2021/11/30 04:54:59;;;;;;;15.03;10.05;;;;;;;0.90;86.10;99386.33;1755081;80;21034;-77
2021/11/30 04:57:25;;;;;;;15.08;9.55;;;;;;;0.91;86.11;99382.75;1755757;81;21113;-76
2021/11/30 04:59:51;;;;;;;15.32;10.38;;;;;;;0.92;86.12;99383.08;1755341;81;21015;-76
2021/11/30 05:02:18;;;;;;;15.80;10.35;;;;;;;0.91;86.11;99373.09;1756435;79;20888;-76
2021/11/30 05:04:47;;;;;;;17.27;10.03;;;;;;;0.94;86.10;99379.85;1757411;80;21534;-76
2021/11/30 05:07:14;;;;;;;17.32;10.40;;;;;;;0.95;86.11;99374.95;1718072;83;21220;-77
2021/11/30 05:09:40;;;;;;;16.00;10.50;;;;;;;0.96;86.12;99366.09;1699618;84;21023;-77
2021/11/30 05:12:08;;;;;;;14.45;10.10;;;;;;;0.96;86.12;99363.47;1700272;83;21008;-77
2021/11/30 05:14:34;;;;;;;16.60;10.45;;;;;;;0.96;86.11;99350.34;1699803;84;21108;-78
2021/11/30 05:17:00;;;;;;;18.35;11.08;;;;;;;0.94;86.12;99347.05;1699565;84;21083;-77
2021/11/30 05:19:26;;;;;;;19.50;12.15;;;;;;;0.92;86.12;99346.33;1721769;83;21190;-77
2021/11/30 05:21:51;;;;;;;17.80;11.15;;;;;;;0.90;86.10;99344.34;1728455;83;20867;-77
2021/11/30 05:24:19;;;;;;;16.87;10.90;;;;;;;0.88;86.13;99345.77;1728332;83;21752;-77
2021/11/30 05:26:45;;;;;;;15.90;10.50;;;;;;;0.88;86.11;99341.03;1728495;83;21058;-77
2021/11/30 05:29:11;;;;;;;16.05;10.78;;;;;;;0.89;86.12;99336.11;1728168;83;21114;-77
2021/11/30 05:31:37;;;;;;;20.27;10.38;;;;;;;0.90;86.12;99332.05;1728927;83;21049;-77
2021/11/30 05:34:04;;;;;;;17.30;10.58;;;;;;;0.91;86.12;99327.16;1728569;83;20994;-77
2021/11/30 05:36:32;;;;;;;14.30;10.28;;;;;;;0.92;86.11;99327.96;1723800;83;21046;-77
2021/11/30 05:38:58;;;;;;;16.35;11.20;;;;;;;0.93;86.08;99329.63;1726811;83;20991;-77
2021/11/30 05:41:24;;;;;;;17.70;11.70;;;;;;;0.93;86.07;99327.84;1728471;83;21070;-77
2021/11/30 05:43:50;;;;;;;18.55;12.37;;;;;;;0.94;86.09;99326.88;1728441;83;21124;-77
2021/11/30 05:46:18;;;;;;;22.73;13.85;;;;;;;0.96;86.07;99326.73;1728475;83;20880;-77
2021/11/30 05:48:44;;;;;;;21.42;13.43;;;;;;;0.99;86.08;99323.83;1722840;83;21034;-77
2021/11/30 05:51:10;;;;;;;22.32;12.98;;;;;;;1.01;86.07;99314.04;1728353;83;20892;-77
2021/11/30 05:53:36;;;;;;;18.15;13.15;;;;;;;1.04;86.09;99306.37;1702903;82;21007;-76
2021/11/30 05:56:02;;;;;;;23.50;14.43;;;;;;;1.04;86.04;99300.64;1699330;84;21900;-76
2021/11/30 05:58:29;;;;;;;24.43;15.53;;;;;;;1.06;86.04;99291.30;1699552;84;20999;-77
2021/11/30 06:01:06;;;;;;;24.40;14.68;;;;;;;1.05;86.02;99283.09;1707908;83;20986;-77
2021/11/30 06:03:31;;;;;;;22.27;14.50;;;;;;;1.05;86.01;99277.84;1710019;82;21016;-76
2021/11/30 06:05:55;;;;;;;20.02;13.58;;;;;;;1.05;85.98;99277.37;1691059;84;21034;-77
2021/11/30 06:08:21;;;;;;;18.70;12.70;;;;;;;1.06;85.99;99271.61;1697012;83;21163;-77
2021/11/30 06:10:47;;;;;;;25.40;14.55;;;;;;;1.05;85.98;99272.13;1695295;83;21696;-77
2021/11/30 06:13:14;;;;;;;23.18;14.25;;;;;;;1.05;85.96;99265.56;1698480;83;21074;-77
2021/11/30 06:15:40;;;;;;;20.60;13.88;;;;;;;1.06;85.96;99258.48;1719973;83;21634;-76
2021/11/30 06:18:06;;;;;;;24.75;15.65;;;;;;;1.06;85.92;99260.63;1707425;83;20915;-77
2021/11/30 06:20:34;;;;;;;22.60;14.83;;;;;;;1.06;85.91;99256.70;1718112;83;21161;-77
2021/11/30 06:23:00;;;;;;;24.45;15.18;;;;;;;1.08;85.90;99250.01;1719865;82;21524;-77
2021/11/30 06:25:27;;;;;;;21.95;13.95;;;;;;;1.07;85.87;99245.23;1718971;82;21001;-77
2021/11/30 06:27:53;;;;;;;24.20;15.43;;;;;;;1.09;85.86;99243.29;1720061;82;21028;-77
2021/11/30 06:30:19;;;;;;;24.35;15.65;;;;;;;1.09;85.84;99238.04;1719627;82;21039;-77
2021/11/30 06:32:45;;;;;;;21.75;15.28;;;;;;;1.07;85.81;99230.80;1719815;82;21949;-76
2021/11/30 06:35:11;;;;;;;20.32;14.00;;;;;;;1.05;85.79;99226.19;1719829;83;21381;-77
2021/11/30 06:37:37;;;;;;;24.50;14.63;;;;;;;1.02;85.78;99227.78;1719171;83;20990;-77
2021/11/30 06:40:05;;;;;;;19.45;13.13;;;;;;;0.97;85.76;99224.73;1711671;83;21007;-77
2021/11/30 06:42:31;;;;;;;20.75;13.20;;;;;;;0.92;85.75;99220.36;1713143;83;20995;-77
2021/11/30 06:44:57;;;;;;;21.65;13.48;;;;;;;0.88;85.73;99214.56;1697020;83;21051;-77
2021/11/30 06:47:23;;;;;;;23.50;12.98;;;;;;;0.88;85.73;99211.13;1719660;83;21421;-76
2021/11/30 06:49:49;;;;;;;21.97;13.88;;;;;;;0.89;85.72;99211.45;1719569;83;21066;-77
2021/11/30 06:52:15;;;;;;;22.07;13.98;;;;;;;0.91;85.70;99196.42;1720038;83;21030;-77
2021/11/30 06:54:46;;;;;;;23.30;13.50;;;;;;;0.93;85.67;99187.91;1698465;83;20925;-77
2021/11/30 06:57:12;;;;;;;20.48;13.38;;;;;;;0.95;85.66;99178.13;1698766;84;21178;-76
2021/11/30 06:59:38;;;;;;;19.00;12.98;;;;;;;0.96;85.65;99179.75;1697617;84;20997;-76
2021/11/30 07:02:05;;;;;;;21.55;11.83;;;;;;;0.99;85.62;99166.34;1675379;83;21089;-77
2021/11/30 07:04:34;;;;;;;17.30;11.38;;;;;;;1.00;85.59;99157.52;1694346;83;21586;-77
2021/11/30 07:12:24;;;;;;;22.17;13.72;;;;;;;1.02;85.53;99142.47;1700481;81;21048;-76
2021/11/30 07:14:39;;;;;;;22.13;14.33;;;;;;;1.04;85.51;99138.38;1755499;81;20972;-77
2021/11/30 07:17:05;;;;;;;19.65;12.05;;;;;;;1.04;85.48;99132.65;1745700;81;20894;-77
2021/11/30 07:19:32;;;;;;;16.93;11.28;;;;;;;1.05;85.43;99126.44;1757605;81;21696;-77
2021/11/30 07:21:58;;;;;;;17.95;10.48;;;;;;;1.08;85.39;99120.91;1756696;81;21793;-77
2021/11/30 07:24:24;;;;;;;21.87;11.75;;;;;;;1.09;85.36;99112.03;1751505;81;21581;-77
2021/11/30 07:26:50;;;;;;;20.00;10.53;;;;;;;1.13;85.30;99108.16;1754915;81;20896;-77
2021/11/30 07:29:16;;;;;;;17.00;10.23;;;;;;;1.15;85.27;99102.78;1756031;81;20967;-76
2021/11/30 07:31:43;;;;;;;15.78;10.08;;;;;;;1.17;85.21;99100.83;1756190;81;20982;-77
2021/11/30 07:34:09;;;;;;;16.90;9.55;;;;;;;1.18;85.16;99107.27;1745395;81;21187;-77
2021/11/30 07:36:36;;;;;;;23.73;11.30;;;;;;;1.18;85.13;99096.77;1757086;81;20999;-77
2021/11/30 07:39:02;;;;;;;41.13;10.70;;;;;;;1.19;85.09;99094.48;1750235;81;21025;-77
2021/11/30 07:41:29;;;;;;;19.23;11.28;;;;;;;1.19;85.05;99089.23;1750129;81;21637;-77
2021/11/30 07:43:55;;;;;;;18.90;9.43;;;;;;;1.18;85.00;99077.08;1743695;81;21061;-77
2021/11/30 07:46:20;;;;;;;27.77;10.82;;;;;;;1.19;84.96;99083.98;1739364;81;21124;-76
2021/11/30 07:48:46;;;;;;;16.60;10.15;;;;;;;1.20;84.93;99079.53;1734440;81;21577;-77
2021/11/30 07:51:16;;;;;;;16.67;10.08;;;;;;;1.20;84.86;99072.97;1742790;81;20907;-77
2021/11/30 07:53:41;;;;;;;20.02;11.22;;;;;;;1.18;84.81;99065.26;1749693;81;21046;-77
2021/11/30 07:56:08;;;;;;;18.37;10.82;;;;;;;1.14;84.76;99061.27;1756952;81;21011;-77
2021/11/30 07:58:34;;;;;;;15.53;9.50;;;;;;;1.11;84.75;99054.98;1753937;81;21581;-77
2021/11/30 08:00:59;;;;;;;17.90;10.90;;;;;;;1.08;84.70;99052.66;1726741;81;20915;-76
2021/11/30 08:03:25;;;;;;;13.35;8.48;;;;;;;1.03;84.69;99043.05;1726647;82;20879;-77
2021/11/30 08:05:51;;;;;;;19.80;10.53;;;;;;;1.02;84.65;99044.53;1727368;81;20991;-77
2021/11/30 08:08:17;;;;;;;20.30;10.58;;;;;;;0.99;84.66;99032.49;1727973;81;21663;-76
2021/11/30 08:10:43;;;;;;;18.55;10.72;;;;;;;0.98;84.63;99024.30;1727101;83;21242;-77
2021/11/30 08:13:10;;;;;;;16.77;9.85;;;;;;;0.95;84.62;99018.03;1727038;81;21088;-77
2021/11/30 08:15:37;;;;;;;14.87;9.23;;;;;;;0.92;84.62;99012.56;1726964;82;21048;-77
2021/11/30 08:18:03;;;;;;;17.37;10.10;;;;;;;0.89;84.62;99006.29;1726871;83;21017;-77
2021/11/30 08:20:29;;;;;;;15.70;8.43;;;;;;;0.83;84.63;98996.38;1727151;81;21529;-76
2021/11/30 08:22:55;;;;;;;15.08;10.18;;;;;;;0.81;84.63;98987.00;1756965;81;21030;-77
2021/11/30 08:25:21;;;;;;;22.37;11.00;;;;;;;0.80;84.62;98982.72;1757023;81;20983;-76
2021/11/30 08:27:47;;;;;;;17.42;9.65;;;;;;;0.81;84.66;98977.30;1756740;81;20880;-77
2021/11/30 08:30:13;;;;;;;15.20;8.68;;;;;;;0.86;84.69;98971.63;1753567;81;20942;-76
2021/11/30 08:32:41;;;;;;;16.73;9.85;;;;;;;0.88;84.70;98960.53;1756920;81;20896;-77
2021/11/30 08:35:08;;;;;;;17.10;10.30;;;;;;;0.91;84.74;98945.80;1721726;83;22041;-77
2021/11/30 08:37:34;;;;;;;15.28;9.58;;;;;;;0.93;84.77;98942.53;1750269;81;21018;-77
2021/11/30 08:40:00;;;;;;;17.85;10.45;;;;;;;0.95;84.79;98939.30;1755829;81;21045;-77
2021/11/30 08:42:26;;;;;;;16.82;10.23;;;;;;;0.97;84.81;98925.53;1756948;81;20984;-77
2021/11/30 08:44:52;;;;;;;18.35;9.73;;;;;;;0.96;84.84;98925.19;1751776;81;20942;-77
2021/11/30 08:47:21;;;;;;;13.08;8.38;;;;;;;0.94;84.88;98917.47;1754203;81;21187;-77
2021/11/30 08:49:47;;;;;;;24.40;12.80;;;;;;;0.93;84.91;98908.42;1752970;81;21009;-77
2021/11/30 08:52:17;;;;;;;20.80;11.80;;;;;;;0.93;84.93;98901.86;1728007;81;20923;-77
2021/11/30 08:54:44;;;;;;;18.87;10.98;;;;;;;0.98;84.97;98904.89;1755740;81;21468;-77
2021/11/30 08:57:10;;;;;;;19.82;10.30;;;;;;;1.00;84.99;98891.95;1747005;81;21484;-77
2021/11/30 08:59:38;;;;;;;19.25;9.93;;;;;;;1.00;85.01;98887.18;1754395;81;21030;-77
2021/11/30 09:02:04;;;;;;;22.98;12.28;;;;;;;1.03;85.05;98866.37;1756755;80;21019;-77
2021/11/30 09:04:30;;;;;;;16.25;10.28;;;;;;;1.07;85.09;98859.38;1753182;80;21039;-77
2021/11/30 09:06:56;;;;;;;20.23;13.18;;;;;;;1.08;85.10;98841.35;1723418;83;20980;-77
2021/11/30 09:09:22;;;;;;;17.52;11.03;;;;;;;1.13;85.13;98843.02;1756647;81;21085;-77
2021/11/30 09:11:48;;;;;;;22.05;10.98;;;;;;;1.13;85.16;98829.90;1756223;81;21103;-77
2021/11/30 09:14:19;;;;;;;19.95;10.53;;;;;;;1.18;85.20;98817.16;1756406;80;20856;-77
2021/11/30 09:16:42;;;;;;;14.07;9.33;;;;;;;1.22;85.21;98809.81;1753381;81;21055;-77
2021/11/30 09:19:08;;;;;;;18.37;10.55;;;;;;;1.22;85.26;98793.58;1756922;81;20880;-77
2021/11/30 09:21:34;;;;;;;31.42;12.30;;;;;;;1.22;85.27;98784.39;1754180;81;21736;-77
2021/11/30 09:24:00;;;;;;;33.70;13.18;;;;;;;1.22;85.33;98783.08;1736608;81;21032;-77
2021/11/30 09:26:26;;;;;;;48.28;17.32;;;;;;;1.22;85.34;98769.95;1705965;83;21027;-77
2021/11/30 09:28:52;;;;;;;32.70;13.90;;;;;;;1.28;85.38;98748.81;1756686;81;20975;-77
2021/11/30 09:31:18;;;;;;;41.95;12.70;;;;;;;1.33;85.41;98742.16;1730067;81;21474;-77
2021/11/30 09:33:44;;;;;;;24.45;11.60;;;;;;;1.41;85.46;98744.82;1728946;81;20918;-77
2021/11/30 09:36:11;;;;;;;40.65;17.37;;;;;;;1.44;85.45;98740.57;1726593;83;21216;-76
2021/11/30 09:38:38;;;;;;;41.75;21.60;;;;;;;1.40;85.48;98739.25;1726602;83;20972;-76
2021/11/30 09:41:05;;;;;;;16.95;9.53;;;;;;;1.39;85.51;98719.21;1726666;82;21009;-77
2021/11/30 09:43:32;;;;;;;21.93;10.58;;;;;;;1.39;85.54;98715.27;1749100;81;21019;-76
2021/11/30 09:46:00;;;;;;;29.25;14.58;;;;;;;1.39;85.57;98696.89;1742424;81;21015;-77
2021/11/30 09:48:27;;;;;;;39.73;18.82;;;;;;;1.39;85.59;98692.95;1723404;81;21188;-77
2021/11/30 09:50:54;;;;;;;15.05;9.13;;;;;;;1.37;85.61;98684.38;1718374;83;21817;-76
2021/11/30 09:53:20;;;;;;;40.38;18.17;;;;;;;1.34;85.63;98666.80;1689615;83;33903;-76
2021/11/30 09:55:47;;;;;;;21.80;11.12;;;;;;;1.31;85.64;98658.75;1718723;83;21631;-76
2021/11/30 09:58:15;;;;;;;12.90;8.88;;;;;;;1.31;85.68;98648.25;1718209;83;21033;-76
2021/11/30 10:00:41;;;;;;;14.47;9.35;;;;;;;1.34;85.69;98645.80;1721281;81;22006;-77
2021/11/30 10:03:08;;;;;;;10.50;7.17;;;;;;;1.40;85.71;98641.26;1718566;83;21131;-76
2021/11/30 10:05:34;;;;;;;12.05;7.22;;;;;;;1.44;85.71;98628.95;1738669;81;21018;-76
2021/11/30 10:08:01;;;;;;;14.95;9.75;;;;;;;1.47;85.75;98626.05;1761085;80;21037;-76
2021/11/30 10:10:33;;;;;;;14.75;7.90;;;;;;;1.49;85.75;98614.05;1742380;80;21060;-76
2021/11/30 10:13:07;;;;;;;21.20;9.80;;;;;;;1.45;85.77;98615.34;1712661;82;21495;-75
2021/11/30 10:16:02;;;;;;;31.27;13.03;;;;;;;1.37;85.81;98595.62;1727929;81;21046;-75
2021/11/30 10:18:37;;;;;;;20.55;10.63;;;;;;;1.26;85.82;98599.33;1737064;80;21018;-76
2021/11/30 10:21:19;;;;;;;17.98;10.32;;;;;;;1.16;85.86;98590.72;1750946;81;21042;-76
2021/11/30 10:23:59;;;;;;;29.37;16.67;;;;;;;1.10;85.91;98578.22;1764854;80;21517;-76
2021/11/30 10:26:32;;;;;;;29.77;16.42;;;;;;;1.01;85.92;98560.78;1736449;81;21942;-76
2021/11/30 10:29:11;;;;;;;34.78;15.50;;;;;;;0.94;85.92;98546.64;1734906;82;21026;-76
2021/11/30 10:31:42;;;;;;;15.28;9.73;;;;;;;0.89;85.97;98521.34;1734859;81;20989;-76
2021/11/30 10:34:16;;;;;;;22.87;10.98;;;;;;;0.86;85.99;98516.41;1739573;81;21073;-76
2021/11/30 10:36:49;;;;;;;18.37;11.28;;;;;;;0.81;86.03;98510.30;1722580;82;21062;-76
2021/11/30 10:39:22;;;;;;;13.28;9.18;;;;;;;0.81;86.06;98509.50;1725113;82;21698;-76
2021/11/30 10:41:51;;;;;;;21.97;12.65;;;;;;;0.83;86.10;98490.48;1710004;82;21109;-74
2021/11/30 10:44:28;;;;;;;11.88;8.03;;;;;;;0.89;86.15;98483.30;1745254;81;21011;-74
2021/11/30 10:47:13;;;;;;;9.48;7.35;;;;;;;0.95;86.17;98477.45;1754181;81;21144;-74
2021/11/30 10:49:58;;;;;;;13.48;9.00;;;;;;;1.01;86.20;98461.06;1759664;81;21038;-74
2021/11/30 10:52:30;;;;;;;10.68;6.62;;;;;;;1.05;86.22;98459.77;1747884;80;21794;-73
2021/11/30 10:55:16;;;;;;;13.80;8.58;;;;;;;1.07;86.25;98441.23;1732980;81;21007;-74
2021/11/30 10:57:47;;;;;;;23.50;10.25;;;;;;;1.08;86.29;98456.83;1740196;81;21029;-73
2021/11/30 11:00:24;;;;;;;14.00;6.97;;;;;;;1.07;86.33;98436.81;1744861;81;21501;-73
2021/11/30 11:05:28;;;;;;;12.18;6.90;;;;;;;1.10;86.41;98425.98;1734389;82;21219;-73
2021/11/30 11:08:06;;;;;;;15.85;8.88;;;;;;;1.13;86.45;98421.73;1741836;82;21396;-73
2021/11/30 11:10:33;;;;;;;14.13;8.85;;;;;;;1.18;86.48;98405.52;1741567;82;21068;-73
2021/11/30 11:13:26;;;;;;;26.30;12.55;;;;;;;1.19;86.54;98407.16;1738049;81;21102;-73
2021/11/30 11:15:57;;;;;;;12.63;8.35;;;;;;;1.18;86.57;98402.40;1739678;81;21090;-74
2021/11/30 11:18:30;;;;;;;9.70;5.70;;;;;;;1.20;86.61;98389.92;1746882;81;21815;-74
2021/11/30 11:21:19;;;;;;;9.13;5.37;;;;;;;1.21;86.64;98385.50;1737271;81;21007;-74
2021/11/30 11:24:06;;;;;;;6.42;4.35;;;;;;;1.25;86.67;98385.52;1738321;81;21043;-74
2021/11/30 11:26:41;;;;;;;7.03;4.75;;;;;;;1.23;86.72;98381.72;1753406;81;21014;-74
2021/11/30 11:29:14;;;;;;;6.45;4.33;;;;;;;1.22;86.73;98374.85;1757075;81;21057;-74
2021/11/30 11:31:42;;;;;;;8.58;4.03;;;;;;;1.20;86.76;98363.67;1758081;80;22196;-74
2021/11/30 11:34:09;;;;;;;7.80;5.05;;;;;;;1.19;86.78;98366.48;1754586;81;20916;-74
2021/11/30 11:36:36;;;;;;;10.38;6.17;;;;;;;1.17;86.81;98364.00;1757437;80;21046;-74
2021/11/30 11:41:53;;;;;;;6.30;4.45;;;;;;;1.22;86.85;98353.03;1817367;77;22445;-75
2021/11/30 11:44:19;;;;;;;7.17;3.92;;;;;;;1.18;86.89;98349.91;1792723;78;21048;-74
2021/11/30 11:46:47;;;;;;;12.50;6.50;;;;;;;1.19;86.89;98346.30;1794160;78;21936;-75